Presque Isle, MI (49777)

8:15 AM EST on December 26, 2014 (GMT -0500)
Lotus Lake | Change Station
CLOSE
Current Station
Personal Weather Station
Location: Presque Isle, MI
Elevation: 617 ft
Nearby Weather Stations

Elev 617 ft 45.30 °N, 83.48 °W | Updated 14 minutes ago

Overcast
Overcast
35.2 °F
Feels Like 32 °F
N
4.2
Wind Variable Wind from SSE

Today
High -- | Low -- °F
--% Chance of Precip.
Yesterday
High -- | Low -- °F
Precip. -- in
8:12 AM 4:56 PM
Waxing Crescent, 25% visible
Pressure 30.01 in
Visibility 10.0 miles
Clouds Overcast 2600 ft
Windchill 32 °F
Dew Point 34 °F
Humidity 96%
Rainfall 0.00 in
Snow Depth Not available.
UV 0 out of 12
Pollen .10 out of 12
Air Quality Not available.
Flu Activity Not available.
METAR KPZQ 261254Z AUTO 19007KT 10SM OVC026 02/01 A3001 RMK AO2 T00210012

More Conditions Fewer Conditions

Pressure 30.01 in
Visibility 10.0 miles
Clouds Overcast 2600 ft
Windchill 32 °F
Dew Point 34 °F
Humidity 96%
Rainfall 0.00 in
Snow Depth Not available.
UV 0 out of 12
Pollen .10 out of 12
Air Quality Not available.
Flu Activity Not available.
METAR KPZQ 261254Z AUTO 19007KT 10SM OVC026 02/01 A3001 RMK AO2 T00210012

More Conditions Fewer Conditions

Nowcast | as of 8:00 am EST on December 26, 2014

At 9 am...cloudy. Temperature 34. South winds 8 mph. At 11 am...cloudy. Temperature 35. South winds 8 mph. At 1 PM...cloudy. Temperature 37. Southwest winds 7 mph. At 3 PM...cloudy. Temperature 36. Southwest winds 6 mph.

×

10-Day Weather Forecast

Almanac

Astronomy

Dec. 26, 2014 Rise Set
Actual Time
Civil Twilight
Nautical Twilight
Astronomical Twilight
Moon
Length of Visible Light
Length of Day
Tomorrow will be .
, % of the Moon is Illuminated

Today's Extremes

State Highs State Lows

Community

WunderPhotos

Upload Photos

1,780,592 photos uploaded!

WunderBlogs® & News

Nearby

Air Quality

  Air Quality AQ Index Pollutant
Not available.

Snow Depth

Station Depth Elevation

Earthquake Activity

City Distance Mag. Time & Date
Minimum magnitude displayed is 2.5.

Coastal Water Temperatures

Place Temperature

Nearby Weather Stations